Time;durP1;ratioP1;P1;durP2;ratioP2;P2;SDS_P1;SDS_P2;PMS_P1;PMS_P2;Temp;Humidity;BMP_temperature;BMP_pressure;BME280_temperature;BME280_humidity;BME280_pressure;Samples;Min_cycle;Max_cycle;Signal;HPM_P1;HPM_P2
2023/01/13 00:01:05;;;;;;;10.50;7.53;;;;;;;;;;5079092;28;20650;-61
2023/01/13 00:03:33;;;;;;;14.07;7.73;;;;;;;;;;5079162;28;20253;-61
2023/01/13 00:06:01;;;;;;;15.00;8.27;;;;;;;;;;5078061;28;20313;-61
2023/01/13 00:08:29;;;;;;;15.60;7.83;;;;;;;;;;5078533;28;20241;-61
2023/01/13 00:10:57;;;;;;;11.93;8.30;;;;;;;;;;5078936;28;20733;-61
2023/01/13 00:13:26;;;;;;;14.17;7.67;;;;;;;;;;5078798;28;20266;-61
2023/01/13 00:15:59;;;;;;;15.63;8.47;;;;;;;;;;5079214;28;20237;-61
2023/01/13 00:18:27;;;;;;;14.10;8.73;;;;;;;;;;5078967;28;20210;-61
2023/01/13 00:20:59;;;;;;;12.67;8.27;;;;;;;;;;5078949;28;20237;-61
2023/01/13 00:23:27;;;;;;;14.90;8.67;;;;;;;;;;5078586;28;20311;-61
2023/01/13 00:25:55;;;;;;;13.70;7.60;;;;;;;;;;5077520;28;20237;-61
2023/01/13 00:28:23;;;;;;;15.00;8.73;;;;;;;;;;5077665;28;20234;-61
2023/01/13 00:30:51;;;;;;;9.47;6.60;;;;;;;;;;5078074;28;20292;-61
2023/01/13 00:33:21;;;;;;;12.70;7.50;;;;;;;;;;5076602;28;20231;-61
2023/01/13 00:35:55;;;;;;;12.77;7.90;;;;;;;;;;5078293;28;20210;-61
2023/01/13 00:38:23;;;;;;;13.30;6.90;;;;;;;;;;5078748;28;20244;-61
2023/01/13 00:40:58;;;;;;;13.67;7.17;;;;;;;;;;5078612;28;20202;-60
2023/01/13 00:43:25;;;;;;;13.47;7.37;;;;;;;;;;5077203;28;20306;-61
2023/01/13 00:45:53;;;;;;;13.63;7.27;;;;;;;;;;5078691;28;20206;-61
2023/01/13 00:48:23;;;;;;;13.07;7.03;;;;;;;;;;5078497;28;20234;-61
2023/01/13 00:50:54;;;;;;;12.87;6.47;;;;;;;;;;5078085;28;20580;-61
2023/01/13 00:53:23;;;;;;;11.03;5.83;;;;;;;;;;5078246;28;20272;-60
2023/01/13 00:55:58;;;;;;;11.77;5.53;;;;;;;;;;5078397;28;20213;-60
2023/01/13 00:58:26;;;;;;;9.60;6.27;;;;;;;;;;5078106;28;20233;-60
2023/01/13 01:00:54;;;;;;;12.97;6.10;;;;;;;;;;5074651;28;20205;-60
2023/01/13 01:03:24;;;;;;;8.23;5.13;;;;;;;;;;5078024;28;20230;-60
2023/01/13 01:05:52;;;;;;;9.20;5.03;;;;;;;;;;5077881;28;20270;-61
2023/01/13 01:08:20;;;;;;;12.93;5.80;;;;;;;;;;5077988;28;20241;-61
2023/01/13 01:10:48;;;;;;;8.90;5.23;;;;;;;;;;5078152;28;20210;-61
2023/01/13 01:13:16;;;;;;;10.73;6.13;;;;;;;;;;5077873;28;20317;-61
2023/01/13 01:15:46;;;;;;;10.93;5.67;;;;;;;;;;5076755;28;20252;-61
2023/01/13 01:18:14;;;;;;;9.13;5.83;;;;;;;;;;5078398;28;20617;-61
2023/01/13 01:20:43;;;;;;;8.23;4.87;;;;;;;;;;5077633;28;20299;-61
2023/01/13 01:23:11;;;;;;;8.63;5.20;;;;;;;;;;5078063;28;20294;-61
2023/01/13 01:25:39;;;;;;;9.53;5.47;;;;;;;;;;5077862;28;20267;-61
2023/01/13 01:28:07;;;;;;;9.67;5.40;;;;;;;;;;5077595;28;20237;-61
2023/01/13 01:30:35;;;;;;;7.50;4.67;;;;;;;;;;5078031;28;20288;-61
2023/01/13 01:33:04;;;;;;;7.30;5.23;;;;;;;;;;5076548;28;20765;-61
2023/01/13 01:35:32;;;;;;;11.10;5.17;;;;;;;;;;5077544;28;20237;-61
2023/01/13 01:38:01;;;;;;;7.90;5.53;;;;;;;;;;5074846;28;20284;-61
2023/01/13 01:40:29;;;;;;;8.07;5.13;;;;;;;;;;5076703;28;20244;-61
2023/01/13 01:45:43;;;;;;;10.60;5.23;;;;;;;;;;5076546;28;20312;-61
2023/01/13 01:48:11;;;;;;;7.73;4.53;;;;;;;;;;5076706;28;20388;-61
2023/01/13 01:50:39;;;;;;;7.37;4.60;;;;;;;;;;5076472;28;20700;-61
2023/01/13 01:53:10;;;;;;;10.00;4.77;;;;;;;;;;5076448;28;20754;-61
2023/01/13 01:55:39;;;;;;;8.13;4.93;;;;;;;;;;5077789;28;20264;-61
2023/01/13 01:58:10;;;;;;;12.13;4.80;;;;;;;;;;5077540;28;20238;-61
2023/01/13 02:00:38;;;;;;;10.90;5.27;;;;;;;;;;5077625;28;20290;-61
2023/01/13 02:03:07;;;;;;;9.67;4.97;;;;;;;;;;5077648;28;20222;-61
2023/01/13 02:05:35;;;;;;;9.80;4.97;;;;;;;;;;5077484;28;20202;-61
2023/01/13 02:08:03;;;;;;;8.63;4.73;;;;;;;;;;5076751;28;20294;-61
2023/01/13 02:10:33;;;;;;;9.50;4.93;;;;;;;;;;5077263;28;20210;-61
2023/01/13 02:13:02;;;;;;;6.27;4.87;;;;;;;;;;5076983;28;20762;-61
2023/01/13 02:15:32;;;;;;;7.40;4.90;;;;;;;;;;5078969;28;20233;-61
2023/01/13 02:18:11;;;;;;;9.63;6.27;;;;;;;;;;5078385;28;20237;-61
2023/01/13 02:20:46;;;;;;;8.10;4.93;;;;;;;;;;5073960;28;20262;-61
2023/01/13 02:26:37;;;;;;;11.30;6.10;;;;;;;;;;5072300;28;20639;-61
2023/01/13 02:32:02;;;;;;;7.20;5.27;;;;;;;;;;5070391;28;20205;-60
2023/01/13 02:34:36;;;;;;;11.20;5.37;;;;;;;;;;5071918;28;20261;-60
2023/01/13 02:37:06;;;;;;;8.03;5.40;;;;;;;;;;5078046;28;20198;-61
2023/01/13 02:39:36;;;;;;;12.53;6.30;;;;;;;;;;5072960;28;20218;-59
2023/01/13 02:44:54;;;;;;;10.30;5.83;;;;;;;;;;5078686;28;20277;-61
2023/01/13 02:47:25;;;;;;;8.17;5.53;;;;;;;;;;5076701;28;20741;-61
2023/01/13 02:49:55;;;;;;;8.80;5.97;;;;;;;;;;5070301;28;20728;-60
2023/01/13 02:52:26;;;;;;;8.93;5.17;;;;;;;;;;5076053;28;20232;-60
2023/01/13 02:54:55;;;;;;;11.43;5.13;;;;;;;;;;5077881;28;20660;-61
2023/01/13 02:57:25;;;;;;;9.37;5.23;;;;;;;;;;5078549;28;20198;-61
2023/01/13 02:59:54;;;;;;;8.03;5.67;;;;;;;;;;5080489;28;20289;-61
2023/01/13 03:02:23;;;;;;;10.83;5.80;;;;;;;;;;5079201;28;20224;-61
2023/01/13 03:04:53;;;;;;;9.57;5.10;;;;;;;;;;5079549;28;20202;-61
2023/01/13 03:07:39;;;;;;;9.13;5.23;;;;;;;;;;5079209;28;20211;-61
2023/01/13 03:10:10;;;;;;;9.53;5.93;;;;;;;;;;5077982;28;20251;-61
2023/01/13 03:12:43;;;;;;;12.13;5.67;;;;;;;;;;5079111;28;20220;-61
2023/01/13 03:15:16;;;;;;;11.03;5.10;;;;;;;;;;5079339;28;20400;-61
2023/01/13 03:17:46;;;;;;;9.40;5.00;;;;;;;;;;5079418;28;20198;-60
2023/01/13 03:20:18;;;;;;;8.77;5.33;;;;;;;;;;5079688;28;20238;-61
2023/01/13 03:22:52;;;;;;;12.20;5.10;;;;;;;;;;5077966;28;20258;-61
2023/01/13 03:25:22;;;;;;;8.20;5.07;;;;;;;;;;5077956;28;20252;-61
2023/01/13 03:27:53;;;;;;;7.97;5.13;;;;;;;;;;5077883;28;20209;-61
2023/01/13 03:30:23;;;;;;;10.50;4.90;;;;;;;;;;5078909;28;20661;-61
2023/01/13 03:32:53;;;;;;;9.43;4.90;;;;;;;;;;5079025;28;20253;-61
2023/01/13 03:35:24;;;;;;;8.70;4.43;;;;;;;;;;5079398;28;20242;-60
2023/01/13 03:37:55;;;;;;;6.63;4.53;;;;;;;;;;5078679;28;20202;-61
2023/01/13 03:40:25;;;;;;;8.53;4.43;;;;;;;;;;5078192;28;20677;-61
2023/01/13 03:45:37;;;;;;;8.30;4.80;;;;;;;;;;5079343;28;20217;-60
2023/01/13 03:48:07;;;;;;;5.33;4.30;;;;;;;;;;5078704;28;20209;-60
2023/01/13 03:50:38;;;;;;;7.97;4.60;;;;;;;;;;5078562;28;20285;-60
2023/01/13 03:53:09;;;;;;;8.80;4.63;;;;;;;;;;5079539;28;20218;-60
2023/01/13 03:55:40;;;;;;;8.77;4.47;;;;;;;;;;5079320;28;20265;-60
2023/01/13 03:58:13;;;;;;;8.10;4.03;;;;;;;;;;5079311;28;20203;-61
2023/01/13 04:00:44;;;;;;;8.87;4.33;;;;;;;;;;5079102;28;20202;-61
2023/01/13 04:03:15;;;;;;;7.73;4.03;;;;;;;;;;5079127;28;20244;-61
2023/01/13 04:05:47;;;;;;;10.30;4.23;;;;;;;;;;5077885;28;20749;-61
2023/01/13 04:08:18;;;;;;;6.97;3.90;;;;;;;;;;5079370;28;20206;-60
2023/01/13 04:10:47;;;;;;;8.43;3.77;;;;;;;;;;5079151;28;20658;-60
2023/01/13 04:13:16;;;;;;;7.60;4.40;;;;;;;;;;5078685;28;20236;-61
2023/01/13 04:15:45;;;;;;;7.20;3.93;;;;;;;;;;5079042;28;20230;-59
2023/01/13 04:18:15;;;;;;;4.53;3.43;;;;;;;;;;5079248;28;20248;-60
2023/01/13 04:20:43;;;;;;;6.67;4.17;;;;;;;;;;5076672;28;20206;-60
2023/01/13 04:23:13;;;;;;;6.63;3.83;;;;;;;;;;5077869;28;20287;-61
2023/01/13 04:25:41;;;;;;;7.70;3.63;;;;;;;;;;5077441;28;20708;-61
2023/01/13 04:28:09;;;;;;;6.43;3.60;;;;;;;;;;5077168;28;20279;-61
2023/01/13 04:30:38;;;;;;;10.87;4.87;;;;;;;;;;5077383;28;20565;-61
2023/01/13 04:33:06;;;;;;;7.50;3.57;;;;;;;;;;5075825;28;20214;-60
2023/01/13 04:35:35;;;;;;;6.10;3.33;;;;;;;;;;5078189;28;20222;-60
2023/01/13 04:38:03;;;;;;;6.53;3.07;;;;;;;;;;5076566;28;20203;-60
2023/01/13 04:40:33;;;;;;;4.63;3.37;;;;;;;;;;5078220;28;20198;-60
2023/01/13 04:43:01;;;;;;;7.10;3.37;;;;;;;;;;5072665;28;20232;-60
2023/01/13 04:45:29;;;;;;;5.13;3.03;;;;;;;;;;5078220;28;20202;-60
2023/01/13 04:47:57;;;;;;;5.93;3.50;;;;;;;;;;5076941;28;20319;-60
2023/01/13 04:50:25;;;;;;;6.50;3.37;;;;;;;;;;5076276;28;20572;-61
2023/01/13 04:52:53;;;;;;;3.50;3.20;;;;;;;;;;5077115;28;20687;-61
2023/01/13 04:55:24;;;;;;;6.73;3.30;;;;;;;;;;5077216;28;20226;-61
2023/01/13 04:57:54;;;;;;;4.60;3.23;;;;;;;;;;5076041;28;20233;-61
2023/01/13 05:00:22;;;;;;;5.87;3.30;;;;;;;;;;5077404;28;20669;-61
2023/01/13 05:02:50;;;;;;;3.93;3.10;;;;;;;;;;5076186;28;20279;-60
2023/01/13 05:05:18;;;;;;;8.17;4.00;;;;;;;;;;5076928;28;20673;-61
2023/01/13 05:07:46;;;;;;;8.50;3.77;;;;;;;;;;5077375;28;20198;-61
2023/01/13 05:10:14;;;;;;;8.50;3.60;;;;;;;;;;5076241;28;20756;-61
2023/01/13 05:18:15;;;;;;;7.17;3.83;;;;;;;;;;5076978;28;20209;-61
2023/01/13 05:20:43;;;;;;;8.20;3.50;;;;;;;;;;5077573;28;20206;-61
2023/01/13 05:25:57;;;;;;;8.60;4.03;;;;;;;;;;5077568;28;20756;-60
2023/01/13 05:28:25;;;;;;;10.33;4.33;;;;;;;;;;5075775;28;20230;-60
2023/01/13 05:30:54;;;;;;;8.00;3.60;;;;;;;;;;5075749;28;20265;-60
2023/01/13 05:33:22;;;;;;;8.53;4.10;;;;;;;;;;5075353;28;20234;-61
2023/01/13 05:35:50;;;;;;;10.77;4.57;;;;;;;;;;5071922;28;20218;-61
2023/01/13 05:38:18;;;;;;;6.67;3.87;;;;;;;;;;5074572;28;20225;-60
2023/01/13 05:43:33;;;;;;;7.70;3.50;;;;;;;;;;5073903;28;20595;-61
2023/01/13 05:46:04;;;;;;;5.83;3.43;;;;;;;;;;5067293;28;20289;-61
2023/01/13 05:48:33;;;;;;;5.30;3.80;;;;;;;;;;5069086;28;20248;-60
2023/01/13 05:51:02;;;;;;;7.67;3.73;;;;;;;;;;5075955;28;20198;-60
2023/01/13 05:53:30;;;;;;;7.37;3.87;;;;;;;;;;5074836;28;20229;-59
2023/01/13 05:55:58;;;;;;;7.93;3.73;;;;;;;;;;5071515;28;20221;-59
2023/01/13 05:58:27;;;;;;;7.17;3.83;;;;;;;;;;5065625;28;20194;-60
2023/01/13 06:00:59;;;;;;;7.70;3.87;;;;;;;;;;5056905;28;20202;-60
2023/01/13 06:03:28;;;;;;;3.77;3.43;;;;;;;;;;5063404;28;20881;-61
2023/01/13 06:06:00;;;;;;;9.20;5.03;;;;;;;;;;5076169;28;20230;-61
2023/01/13 06:08:29;;;;;;;7.47;3.60;;;;;;;;;;5077301;28;20662;-61
2023/01/13 06:10:57;;;;;;;7.43;3.70;;;;;;;;;;5070931;28;20208;-61
2023/01/13 06:13:25;;;;;;;7.20;3.40;;;;;;;;;;5076873;28;20261;-61
2023/01/13 06:15:55;;;;;;;4.57;3.30;;;;;;;;;;5073101;28;20241;-61
2023/01/13 06:18:23;;;;;;;6.30;3.00;;;;;;;;;;5070786;28;20194;-61
2023/01/13 06:20:53;;;;;;;7.60;3.33;;;;;;;;;;5074817;28;20212;-61
2023/01/13 06:23:21;;;;;;;4.50;3.30;;;;;;;;;;5078016;28;20222;-61
2023/01/13 06:25:52;;;;;;;6.80;3.57;;;;;;;;;;5078307;28;20202;-60
2023/01/13 06:28:20;;;;;;;4.57;3.07;;;;;;;;;;5077126;28;20209;-58
2023/01/13 06:30:49;;;;;;;5.53;3.07;;;;;;;;;;5079478;28;20210;-58
2023/01/13 06:33:19;;;;;;;3.73;2.90;;;;;;;;;;5078636;28;20836;-58
2023/01/13 06:35:51;;;;;;;4.37;2.83;;;;;;;;;;5072502;28;20661;-58
2023/01/13 06:38:23;;;;;;;3.50;2.67;;;;;;;;;;5083319;28;20237;-58
2023/01/13 06:40:51;;;;;;;3.97;3.17;;;;;;;;;;5073654;28;20227;-58
2023/01/13 06:43:18;;;;;;;9.33;3.47;;;;;;;;;;5074842;28;20261;-59
2023/01/13 06:45:48;;;;;;;4.47;3.40;;;;;;;;;;5075546;28;20576;-58
2023/01/13 06:48:16;;;;;;;7.57;3.33;;;;;;;;;;5079538;28;20202;-58
2023/01/13 06:50:44;;;;;;;6.50;2.90;;;;;;;;;;5080627;28;20233;-58
2023/01/13 06:53:12;;;;;;;4.93;3.10;;;;;;;;;;5080285;28;20226;-58
2023/01/13 06:55:42;;;;;;;5.63;3.27;;;;;;;;;;5080543;28;20206;-58
2023/01/13 06:58:10;;;;;;;5.73;2.83;;;;;;;;;;5080032;28;20226;-58
2023/01/13 07:00:38;;;;;;;4.37;3.10;;;;;;;;;;5076163;28;20199;-58
2023/01/13 07:03:10;;;;;;;5.53;3.17;;;;;;;;;;5073130;28;20655;-58
2023/01/13 07:05:39;;;;;;;5.93;3.20;;;;;;;;;;5080070;28;20210;-58
2023/01/13 07:08:08;;;;;;;4.43;2.70;;;;;;;;;;5073802;28;20293;-57
2023/01/13 07:10:36;;;;;;;6.43;2.80;;;;;;;;;;5064542;28;20237;-58
2023/01/13 07:15:55;;;;;;;3.87;2.80;;;;;;;;;;5080308;28;20290;-58
2023/01/13 07:18:26;;;;;;;4.13;2.80;;;;;;;;;;5079948;28;20226;-58
2023/01/13 07:20:58;;;;;;;6.80;4.90;;;;;;;;;;5079758;28;20210;-60
2023/01/13 07:23:27;;;;;;;4.37;2.87;;;;;;;;;;5080091;28;20230;-61
2023/01/13 07:25:56;;;;;;;5.40;3.00;;;;;;;;;;5073215;28;20265;-60
2023/01/13 07:28:26;;;;;;;3.87;2.53;;;;;;;;;;5079606;28;20689;-60
2023/01/13 07:30:54;;;;;;;4.10;2.60;;;;;;;;;;5079935;28;20206;-61
2023/01/13 07:33:22;;;;;;;6.80;2.83;;;;;;;;;;5073089;28;20244;-61
2023/01/13 07:35:56;;;;;;;5.97;3.30;;;;;;;;;;5067457;28;20241;-61
2023/01/13 07:38:24;;;;;;;5.90;2.77;;;;;;;;;;5079417;28;20222;-61
2023/01/13 07:40:53;;;;;;;4.57;2.37;;;;;;;;;;5079737;28;20275;-61
2023/01/13 07:43:32;;;;;;;4.00;2.73;;;;;;;;;;5079185;28;20218;-61
2023/01/13 07:46:06;;;;;;;6.03;2.83;;;;;;;;;;5079558;28;20206;-61
2023/01/13 07:48:35;;;;;;;7.37;2.80;;;;;;;;;;5079325;28;20202;-61
2023/01/13 07:51:04;;;;;;;5.17;2.97;;;;;;;;;;5079045;28;20561;-61
2023/01/13 07:53:32;;;;;;;5.77;2.80;;;;;;;;;;5079115;28;20272;-61
2023/01/13 07:56:00;;;;;;;6.43;3.10;;;;;;;;;;5072525;28;20281;-61
2023/01/13 07:58:29;;;;;;;8.40;3.00;;;;;;;;;;5079157;28;20596;-61
2023/01/13 08:00:57;;;;;;;6.67;2.60;;;;;;;;;;5079078;28;20228;-61
2023/01/13 08:03:28;;;;;;;5.53;3.37;;;;;;;;;;5076575;28;20678;-60
2023/01/13 08:05:56;;;;;;;8.50;3.30;;;;;;;;;;5076287;28;20689;-61
2023/01/13 08:08:24;;;;;;;4.43;2.87;;;;;;;;;;5077497;28;20202;-61
2023/01/13 08:10:52;;;;;;;6.60;3.17;;;;;;;;;;5078923;28;20209;-61
2023/01/13 08:13:20;;;;;;;3.93;2.87;;;;;;;;;;5076540;28;20222;-61
2023/01/13 08:15:49;;;;;;;7.03;3.67;;;;;;;;;;5078828;28;20210;-61
2023/01/13 08:18:20;;;;;;;7.07;3.40;;;;;;;;;;5078778;28;20279;-61
2023/01/13 08:20:51;;;;;;;6.47;3.27;;;;;;;;;;5078891;28;20251;-61
2023/01/13 08:23:19;;;;;;;6.23;3.30;;;;;;;;;;5078675;28;20230;-61
2023/01/13 08:25:47;;;;;;;5.13;2.93;;;;;;;;;;5077894;28;20215;-61
2023/01/13 08:28:17;;;;;;;5.17;2.90;;;;;;;;;;5078201;28;20199;-60
2023/01/13 08:30:45;;;;;;;5.57;3.50;;;;;;;;;;5076101;28;20244;-60
2023/01/13 08:33:13;;;;;;;6.50;3.40;;;;;;;;;;5074548;28;20701;-60
2023/01/13 08:35:41;;;;;;;6.00;3.37;;;;;;;;;;5078391;28;20206;-58
2023/01/13 08:38:11;;;;;;;7.90;3.63;;;;;;;;;;5078222;28;20660;-61
2023/01/13 08:40:39;;;;;;;7.17;3.40;;;;;;;;;;5078531;28;20202;-61
2023/01/13 08:43:07;;;;;;;10.93;3.43;;;;;;;;;;5078071;28;20226;-61
2023/01/13 08:45:36;;;;;;;11.50;2.93;;;;;;;;;;5078285;28;20579;-60
2023/01/13 08:48:04;;;;;;;6.03;3.90;;;;;;;;;;5078531;28;20240;-59
2023/01/13 08:50:32;;;;;;;8.57;3.47;;;;;;;;;;5077998;28;20229;-59
2023/01/13 08:53:00;;;;;;;8.33;3.50;;;;;;;;;;5078070;28;20226;-60
2023/01/13 08:55:30;;;;;;;8.33;4.33;;;;;;;;;;5077938;28;20210;-60
2023/01/13 08:57:58;;;;;;;9.47;4.27;;;;;;;;;;5077778;28;20751;-60
2023/01/13 09:00:41;;;;;;;7.20;3.40;;;;;;;;;;5076668;28;20217;-60
2023/01/13 09:03:10;;;;;;;7.57;3.77;;;;;;;;;;5077042;28;20257;-59
2023/01/13 09:05:38;;;;;;;8.43;3.83;;;;;;;;;;5078028;28;20289;-62
2023/01/13 09:08:06;;;;;;;7.33;3.70;;;;;;;;;;5067148;28;20206;-61
2023/01/13 09:10:35;;;;;;;7.33;3.50;;;;;;;;;;5077915;28;20206;-61
2023/01/13 09:13:12;;;;;;;6.93;3.80;;;;;;;;;;5077348;28;20635;-61
2023/01/13 09:15:41;;;;;;;6.13;3.67;;;;;;;;;;5077694;28;20236;-60
2023/01/13 09:18:09;;;;;;;7.43;3.40;;;;;;;;;;5077930;28;20256;-61
2023/01/13 09:20:38;;;;;;;6.07;3.70;;;;;;;;;;5077580;28;20624;-61
2023/01/13 09:23:06;;;;;;;4.47;3.30;;;;;;;;;;5077979;28;20226;-60
2023/01/13 09:25:39;;;;;;;5.70;4.57;;;;;;;;;;5074411;28;20210;-59
2023/01/13 09:28:07;;;;;;;4.73;3.43;;;;;;;;;;5071168;28;20210;-60
2023/01/13 09:30:36;;;;;;;5.53;3.70;;;;;;;;;;5077080;28;20250;-60
2023/01/13 09:35:50;;;;;;;5.27;3.27;;;;;;;;;;5077186;28;20206;-60
2023/01/13 09:38:18;;;;;;;4.73;3.37;;;;;;;;;;5076665;28;20236;-61
2023/01/13 09:40:48;;;;;;;5.30;3.40;;;;;;;;;;5077200;28;20206;-61
2023/01/13 09:46:42;;;;;;;5.10;3.50;;;;;;;;;;5059655;28;20206;-61
2023/01/13 09:49:02;;;;;;;8.23;3.73;;;;;;;;;;5064778;28;20251;-61
2023/01/13 09:51:31;;;;;;;351.10;189.93;;;;;;;;;;5074459;28;20206;-60
2023/01/13 09:54:03;;;;;;;49.33;32.37;;;;;;;;;;5071553;28;20693;-60
2023/01/13 09:56:32;;;;;;;15.40;6.33;;;;;;;;;;5077335;28;20206;-58
2023/01/13 09:59:00;;;;;;;6.00;3.70;;;;;;;;;;5077380;28;20237;-59
2023/01/13 10:01:31;;;;;;;8.90;3.27;;;;;;;;;;5077407;28;20214;-61
2023/01/13 10:04:02;;;;;;;4.43;3.13;;;;;;;;;;5077018;28;20284;-60
2023/01/13 10:06:34;;;;;;;6.43;3.33;;;;;;;;;;5077172;28;20275;-60
2023/01/13 10:09:03;;;;;;;10.50;3.60;;;;;;;;;;5077197;28;20717;-61
2023/01/13 10:14:19;;;;;;;7.13;3.70;;;;;;;;;;5077427;28;20262;-60
2023/01/13 10:16:49;;;;;;;6.17;3.90;;;;;;;;;;5068121;28;20199;-60
2023/01/13 10:19:18;;;;;;;6.83;3.83;;;;;;;;;;5075843;28;20584;-60
2023/01/13 10:22:00;;;;;;;4.47;2.97;;;;;;;;;;5072996;28;20206;-60
2023/01/13 10:24:34;;;;;;;6.07;3.03;;;;;;;;;;5074089;28;20265;-61
2023/01/13 10:27:05;;;;;;;6.57;2.73;;;;;;;;;;5066807;28;20229;-60
2023/01/13 10:29:33;;;;;;;13.00;3.50;;;;;;;;;;5062722;28;20196;-60
2023/01/13 10:32:01;;;;;;;5.67;2.93;;;;;;;;;;5064065;28;20241;-60
2023/01/13 10:34:30;;;;;;;6.60;3.30;;;;;;;;;;5076904;28;20248;-60
2023/01/13 10:37:00;;;;;;;10.53;4.03;;;;;;;;;;5075971;28;20202;-60
2023/01/13 10:39:29;;;;;;;3.93;3.30;;;;;;;;;;5078748;28;20275;-60
2023/01/13 10:42:06;;;;;;;5.87;3.37;;;;;;;;;;5088132;28;20206;-60
2023/01/13 10:44:46;;;;;;;6.30;3.70;;;;;;;;;;5076821;28;20248;-60
2023/01/13 10:47:19;;;;;;;5.23;3.30;;;;;;;;;;5077093;28;20206;-61
2023/01/13 10:49:59;;;;;;;7.87;4.10;;;;;;;;;;5077567;28;20232;-60
2023/01/13 10:52:28;;;;;;;7.90;3.90;;;;;;;;;;5070124;28;20208;-61
2023/01/13 10:54:56;;;;;;;8.37;3.80;;;;;;;;;;5080194;28;20222;-60
2023/01/13 10:57:26;;;;;;;8.07;4.13;;;;;;;;;;5080158;28;20206;-61
2023/01/13 10:59:55;;;;;;;8.17;3.83;;;;;;;;;;5079539;28;20261;-62
2023/01/13 11:02:27;;;;;;;4.60;3.57;;;;;;;;;;5069172;28;20198;-62
2023/01/13 11:05:16;;;;;;;7.90;3.70;;;;;;;;;;5079975;28;20244;-62
2023/01/13 11:07:49;;;;;;;10.03;3.17;;;;;;;;;;5076867;28;20198;-62
2023/01/13 11:10:19;;;;;;;4.73;3.40;;;;;;;;;;5080104;28;20233;-62
2023/01/13 11:12:52;;;;;;;4.33;3.10;;;;;;;;;;5077649;28;20272;-61
2023/01/13 11:15:22;;;;;;;5.10;3.30;;;;;;;;;;5075591;28;20200;-61
2023/01/13 11:17:59;;;;;;;6.53;3.03;;;;;;;;;;5079410;28;20281;-62
2023/01/13 11:20:31;;;;;;;6.53;3.70;;;;;;;;;;5079023;28;20226;-61
2023/01/13 11:23:01;;;;;;;5.47;3.57;;;;;;;;;;5079952;28;20317;-62
2023/01/13 11:25:32;;;;;;;4.97;3.43;;;;;;;;;;5079530;28;20205;-61
2023/01/13 11:28:04;;;;;;;7.13;3.87;;;;;;;;;;5078093;28;20214;-62
2023/01/13 11:30:35;;;;;;;7.63;4.23;;;;;;;;;;5079534;28;20206;-61
2023/01/13 11:33:20;;;;;;;5.53;3.50;;;;;;;;;;5078265;28;20221;-61
2023/01/13 11:35:52;;;;;;;5.13;3.60;;;;;;;;;;5079034;28;20214;-61
2023/01/13 11:38:27;;;;;;;8.10;3.53;;;;;;;;;;5077500;28;20237;-62
2023/01/13 11:40:57;;;;;;;8.70;3.53;;;;;;;;;;5079405;28;20241;-61
2023/01/13 11:43:32;;;;;;;7.13;3.50;;;;;;;;;;5079386;28;20228;-62
2023/01/13 11:46:00;;;;;;;5.97;3.53;;;;;;;;;;5079189;28;20285;-61
2023/01/13 11:48:30;;;;;;;6.27;3.47;;;;;;;;;;5079625;28;20210;-61
2023/01/13 11:51:00;;;;;;;9.43;4.13;;;;;;;;;;5076517;28;20293;-61
2023/01/13 11:53:41;;;;;;;5.87;3.60;;;;;;;;;;5079234;28;20236;-61
2023/01/13 11:56:16;;;;;;;4.70;3.40;;;;;;;;;;5076591;28;20202;-61
2023/01/13 11:58:57;;;;;;;8.40;3.97;;;;;;;;;;5072214;28;20206;-62
2023/01/13 12:01:35;;;;;;;7.17;3.70;;;;;;;;;;5072394;28;20562;-62
2023/01/13 12:04:11;;;;;;;7.40;3.50;;;;;;;;;;5075206;28;20226;-62
2023/01/13 12:06:42;;;;;;;5.40;3.17;;;;;;;;;;5078740;28;20656;-62
2023/01/13 12:09:18;;;;;;;9.63;3.80;;;;;;;;;;5078686;28;20285;-62
2023/01/13 12:14:44;;;;;;;7.73;3.77;;;;;;;;;;5078498;28;20235;-62
2023/01/13 12:17:18;;;;;;;7.57;4.53;;;;;;;;;;5061601;28;20204;-62
2023/01/13 12:19:49;;;;;;;6.23;4.40;;;;;;;;;;5058967;28;20244;-62
2023/01/13 12:22:21;;;;;;;8.77;4.87;;;;;;;;;;5057918;28;20206;-61
2023/01/13 12:24:51;;;;;;;6.37;4.40;;;;;;;;;;5057517;28;20222;-62
2023/01/13 12:27:22;;;;;;;5.30;3.90;;;;;;;;;;5061430;28;20272;-62
2023/01/13 12:29:54;;;;;;;6.50;4.17;;;;;;;;;;5069683;28;20245;-62
2023/01/13 12:32:33;;;;;;;8.43;3.80;;;;;;;;;;5067415;28;20209;-62
2023/01/13 12:35:07;;;;;;;9.73;3.50;;;;;;;;;;5069719;28;20237;-62
2023/01/13 12:37:41;;;;;;;7.37;4.13;;;;;;;;;;5076900;28;20205;-62
2023/01/13 12:40:18;;;;;;;4.90;3.30;;;;;;;;;;5076149;28;20255;-62
2023/01/13 12:45:37;;;;;;;6.83;3.87;;;;;;;;;;5067930;28;20266;-61
2023/01/13 12:48:05;;;;;;;5.37;3.63;;;;;;;;;;5078644;28;20662;-62
2023/01/13 12:50:39;;;;;;;8.47;3.50;;;;;;;;;;5078344;28;20209;-62
2023/01/13 12:53:37;;;;;;;8.20;3.70;;;;;;;;;;5077214;28;20770;-62
2023/01/13 12:56:22;;;;;;;13.87;4.07;;;;;;;;;;5056152;28;20211;-62
2023/01/13 12:58:51;;;;;;;9.60;3.77;;;;;;;;;;5076425;28;20289;-62
2023/01/13 13:01:34;;;;;;;12.13;4.30;;;;;;;;;;5078316;28;20229;-62
2023/01/13 13:04:08;;;;;;;6.40;4.07;;;;;;;;;;5078498;28;20226;-62
2023/01/13 13:06:39;;;;;;;11.83;4.33;;;;;;;;;;5077669;28;20201;-62
2023/01/13 13:09:18;;;;;;;17.97;4.57;;;;;;;;;;5078276;28;20210;-61
2023/01/13 13:14:59;;;;;;;5.67;3.97;;;;;;;;;;5071473;28;20222;-60
2023/01/13 13:17:41;;;;;;;6.57;4.17;;;;;;;;;;5060784;28;20206;-61
2023/01/13 13:20:24;;;;;;;6.83;4.30;;;;;;;;;;5077464;28;20271;-60
2023/01/13 13:22:52;;;;;;;8.97;4.47;;;;;;;;;;5077217;28;20236;-63
2023/01/13 13:25:21;;;;;;;8.73;4.73;;;;;;;;;;5077429;28;20206;-60
2023/01/13 13:27:54;;;;;;;8.57;4.43;;;;;;;;;;5077367;28;20209;-65
2023/01/13 13:30:24;;;;;;;8.40;4.97;;;;;;;;;;5077510;28;20288;-60
2023/01/13 13:33:00;;;;;;;7.70;4.13;;;;;;;;;;5077187;28;20284;-60
2023/01/13 13:35:39;;;;;;;8.70;4.50;;;;;;;;;;5076146;28;20202;-61
2023/01/13 13:46:47;;;;;;;6.93;4.17;;;;;;;;;;5077104;28;20209;-61
2023/01/13 13:49:17;;;;;;;6.33;4.07;;;;;;;;;;5077206;28;20293;-59
2023/01/13 13:51:49;;;;;;;6.93;3.90;;;;;;;;;;5078721;28;20202;-61
2023/01/13 13:54:18;;;;;;;8.90;4.47;;;;;;;;;;5076975;28;20601;-62
2023/01/13 13:56:47;;;;;;;7.37;3.83;;;;;;;;;;5077442;28;20208;-61
2023/01/13 13:59:18;;;;;;;8.07;3.73;;;;;;;;;;5077252;28;20241;-61
2023/01/13 14:01:50;;;;;;;6.93;3.93;;;;;;;;;;5077623;28;20222;-60
2023/01/13 14:04:21;;;;;;;9.20;4.30;;;;;;;;;;5077462;28;20225;-60
2023/01/13 14:06:50;;;;;;;7.43;4.27;;;;;;;;;;5074144;28;20206;-60
2023/01/13 14:09:19;;;;;;;8.30;4.80;;;;;;;;;;5076585;28;20234;-61
2023/01/13 14:11:57;;;;;;;7.23;4.83;;;;;;;;;;5073243;28;20225;-60
2023/01/13 14:14:26;;;;;;;6.90;4.20;;;;;;;;;;5057854;28;20882;-60
2023/01/13 14:16:55;;;;;;;8.60;4.33;;;;;;;;;;5056959;28;20198;-59
2023/01/13 14:19:34;;;;;;;7.53;3.70;;;;;;;;;;5058291;28;20834;-60
2023/01/13 14:22:03;;;;;;;7.30;3.80;;;;;;;;;;5063923;28;20233;-60
2023/01/13 14:24:32;;;;;;;5.87;3.10;;;;;;;;;;5063577;28;20222;-62
2023/01/13 14:27:10;;;;;;;6.43;3.40;;;;;;;;;;5079945;28;20289;-62
2023/01/13 14:29:38;;;;;;;7.53;3.17;;;;;;;;;;5080840;28;20206;-61
2023/01/13 14:32:07;;;;;;;4.50;2.87;;;;;;;;;;5080066;28;20230;-61
2023/01/13 14:34:36;;;;;;;6.77;3.47;;;;;;;;;;5079153;28;20245;-60
2023/01/13 14:37:21;;;;;;;5.20;3.30;;;;;;;;;;5079134;28;20207;-60
2023/01/13 14:39:49;;;;;;;9.03;3.93;;;;;;;;;;5074846;28;20205;-60
2023/01/13 14:42:17;;;;;;;7.30;3.20;;;;;;;;;;5071404;28;20233;-59
2023/01/13 14:44:46;;;;;;;6.87;3.13;;;;;;;;;;5078637;28;20571;-61
2023/01/13 14:47:19;;;;;;;5.40;3.50;;;;;;;;;;5080333;28;20688;-62
2023/01/13 14:49:57;;;;;;;8.30;3.80;;;;;;;;;;5077730;28;20216;-62
2023/01/13 14:52:26;;;;;;;5.70;3.30;;;;;;;;;;5078627;28;20206;-62
2023/01/13 14:55:11;;;;;;;7.87;3.67;;;;;;;;;;5078425;28;20228;-62
2023/01/13 14:57:40;;;;;;;5.63;3.43;;;;;;;;;;5078341;28;20206;-62
2023/01/13 15:00:19;;;;;;;7.40;4.10;;;;;;;;;;5078188;28;20206;-62
2023/01/13 15:02:48;;;;;;;8.77;3.73;;;;;;;;;;5079071;28;20236;-62
2023/01/13 15:05:34;;;;;;;7.47;3.30;;;;;;;;;;5078774;28;20613;-62
2023/01/13 15:08:08;;;;;;;9.77;3.47;;;;;;;;;;5079013;28;20202;-62
2023/01/13 15:10:37;;;;;;;4.50;2.87;;;;;;;;;;5079559;28;20198;-62
2023/01/13 15:13:06;;;;;;;3.70;3.20;;;;;;;;;;5078573;28;20221;-62
2023/01/13 15:15:35;;;;;;;8.23;2.97;;;;;;;;;;5077477;28;20210;-62
2023/01/13 15:18:09;;;;;;;7.23;4.37;;;;;;;;;;5078418;28;20210;-62
2023/01/13 15:20:39;;;;;;;7.37;3.63;;;;;;;;;;5077588;28;20305;-62
2023/01/13 15:23:09;;;;;;;14.17;4.03;;;;;;;;;;5077995;28;20257;-62
2023/01/13 15:25:37;;;;;;;12.83;4.10;;;;;;;;;;5078729;28;20209;-62
2023/01/13 15:28:06;;;;;;;6.63;3.37;;;;;;;;;;5078971;28;20669;-62
2023/01/13 15:30:34;;;;;;;7.77;4.63;;;;;;;;;;5077920;28;20204;-61
2023/01/13 15:33:02;;;;;;;9.70;3.80;;;;;;;;;;5079239;28;20309;-62
2023/01/13 15:35:31;;;;;;;5.77;3.10;;;;;;;;;;5079031;28;20245;-62
2023/01/13 15:37:59;;;;;;;9.53;3.20;;;;;;;;;;5080164;28;20211;-62
2023/01/13 15:40:30;;;;;;;7.73;3.63;;;;;;;;;;5079711;28;20217;-63
2023/01/13 15:48:30;;;;;;;4.67;3.47;;;;;;;;;;5079851;28;20202;-62
2023/01/13 15:50:58;;;;;;;6.70;3.10;;;;;;;;;;5079880;28;20230;-63
2023/01/13 15:53:27;;;;;;;9.90;4.10;;;;;;;;;;5079688;28;20226;-62
2023/01/13 15:55:58;;;;;;;9.47;4.67;;;;;;;;;;5079582;28;20206;-62
2023/01/13 15:58:28;;;;;;;8.30;4.20;;;;;;;;;;5078608;28;20216;-63
2023/01/13 16:00:56;;;;;;;10.10;5.37;;;;;;;;;;5079386;28;20257;-63